Time;durP1;ratioP1;P1;durP2;ratioP2;P2;SDS_P1;SDS_P2;PMS_P1;PMS_P2;Temp;Humidity;BMP_temperature;BMP_pressure;BME280_temperature;BME280_humidity;BME280_pressure;Samples;Min_cycle;Max_cycle;Signal;HPM_P1;HPM_P2
2022/07/10 16:02:05;;;;;;;3.55;1.02;;;;;;;;;;5075081;28;20388;-90
2022/07/10 16:04:31;;;;;;;3.80;1.15;;;;;;;;;;5074864;28;20398;-90
2022/07/10 16:06:57;;;;;;;4.03;1.15;;;;;;;;;;5074581;28;20379;-89
2022/07/10 16:09:24;;;;;;;6.50;1.10;;;;;;;;;;5074789;28;20472;-90
2022/07/10 16:11:50;;;;;;;5.70;1.10;;;;;;;;;;5074810;28;20035;-90
2022/07/10 16:14:18;;;;;;;4.03;0.82;;;;;;;;;;5075104;28;20043;-90
2022/07/10 16:16:44;;;;;;;3.22;0.93;;;;;;;;;;5075020;28;20037;-90
2022/07/10 16:19:11;;;;;;;7.53;1.30;;;;;;;;;;5074792;28;20021;-90
2022/07/10 16:21:37;;;;;;;2.65;1.02;;;;;;;;;;5074887;28;20025;-89
2022/07/10 16:24:04;;;;;;;8.07;0.80;;;;;;;;;;5074795;28;20418;-90
2022/07/10 16:26:35;;;;;;;4.93;0.90;;;;;;;;;;5073916;28;20017;-90
2022/07/10 16:29:01;;;;;;;2.05;0.65;;;;;;;;;;5074653;28;20027;-90
2022/07/10 16:31:27;;;;;;;2.38;0.90;;;;;;;;;;5073561;28;20033;-90
2022/07/10 16:33:56;;;;;;;2.25;0.77;;;;;;;;;;5074472;28;20037;-90
2022/07/10 16:36:22;;;;;;;2.90;0.70;;;;;;;;;;5074702;28;20025;-90
2022/07/10 16:38:52;;;;;;;3.67;0.98;;;;;;;;;;5074363;28;20115;-89
2022/07/10 16:41:18;;;;;;;2.00;0.90;;;;;;;;;;5074159;28;20033;-90
2022/07/10 16:43:44;;;;;;;3.22;1.00;;;;;;;;;;5074236;28;20330;-90
2022/07/10 16:46:10;;;;;;;4.78;1.23;;;;;;;;;;5068090;28;20109;-91
2022/07/10 16:48:36;;;;;;;0.82;0.70;;;;;;;;;;5053261;28;20033;-90
2022/07/10 16:51:02;;;;;;;2.28;0.70;;;;;;;;;;5054187;28;20029;-90
2022/07/10 16:53:29;;;;;;;1.48;0.77;;;;;;;;;;5054078;28;20323;-89
2022/07/10 16:55:55;;;;;;;3.00;0.70;;;;;;;;;;5054125;28;20407;-89
2022/07/10 16:58:23;;;;;;;3.40;0.85;;;;;;;;;;5054199;28;20025;-89
2022/07/10 17:00:49;;;;;;;1.77;0.50;;;;;;;;;;5053686;28;20073;-90
2022/07/10 17:03:16;;;;;;;3.30;0.63;;;;;;;;;;5054023;28;20071;-90
2022/07/10 17:05:44;;;;;;;4.07;1.23;;;;;;;;;;5053815;28;20423;-90
2022/07/10 17:08:12;;;;;;;3.95;0.95;;;;;;;;;;5053839;28;20056;-90
2022/07/10 17:10:41;;;;;;;2.38;0.63;;;;;;;;;;5053537;28;20041;-89
2022/07/10 17:13:07;;;;;;;5.70;1.52;;;;;;;;;;5041895;28;20060;-90
2022/07/10 17:15:33;;;;;;;5.68;1.42;;;;;;;;;;5040504;28;20465;-89
2022/07/10 17:17:59;;;;;;;6.18;0.75;;;;;;;;;;5055902;28;20025;-90
2022/07/10 17:20:26;;;;;;;7.68;0.95;;;;;;;;;;5045848;28;20029;-89
2022/07/10 17:22:52;;;;;;;3.58;0.85;;;;;;;;;;5040241;28;20056;-90
2022/07/10 17:25:19;;;;;;;2.65;0.90;;;;;;;;;;5039419;28;20026;-90
2022/07/10 17:27:47;;;;;;;2.38;1.08;;;;;;;;;;5040124;28;20029;-89
2022/07/10 17:30:13;;;;;;;3.05;0.88;;;;;;;;;;5040475;28;20037;-89
2022/07/10 17:32:39;;;;;;;1.95;0.77;;;;;;;;;;5039243;28;20415;-89
2022/07/10 17:35:06;;;;;;;2.95;0.90;;;;;;;;;;5040014;28;20018;-89
2022/07/10 17:37:32;;;;;;;2.58;0.65;;;;;;;;;;5040027;28;20033;-89
2022/07/10 17:39:58;;;;;;;3.95;0.63;;;;;;;;;;5039860;28;20033;-89
2022/07/10 17:42:24;;;;;;;1.40;0.60;;;;;;;;;;5040154;28;20379;-89
2022/07/10 17:44:50;;;;;;;1.25;0.70;;;;;;;;;;5038765;28;20412;-89
2022/07/10 17:47:16;;;;;;;4.80;0.98;;;;;;;;;;5039522;28;20025;-87
2022/07/10 17:49:44;;;;;;;1.58;0.80;;;;;;;;;;5038712;28;20056;-89
2022/07/10 17:52:10;;;;;;;5.80;0.90;;;;;;;;;;5039714;28;20017;-88
2022/07/10 17:54:38;;;;;;;2.83;1.00;;;;;;;;;;5039763;28;20022;-89
2022/07/10 17:57:04;;;;;;;2.58;0.90;;;;;;;;;;5038678;28;20140;-88
2022/07/10 17:59:30;;;;;;;3.55;0.63;;;;;;;;;;5039803;28;20025;-89
2022/07/10 18:01:56;;;;;;;3.30;1.02;;;;;;;;;;5039018;28;20064;-89
2022/07/10 18:04:23;;;;;;;3.97;1.45;;;;;;;;;;5039532;28;20030;-88
2022/07/10 18:06:49;;;;;;;3.75;0.85;;;;;;;;;;5039639;28;20029;-89
2022/07/10 18:09:15;;;;;;;2.85;0.85;;;;;;;;;;5038383;28;20064;-85
2022/07/10 18:11:41;;;;;;;9.02;1.10;;;;;;;;;;5039252;28;20014;-90
2022/07/10 18:14:07;;;;;;;1.25;0.63;;;;;;;;;;5039066;28;20044;-90
2022/07/10 18:16:33;;;;;;;4.05;0.70;;;;;;;;;;5039373;28;20049;-90
2022/07/10 18:18:59;;;;;;;1.63;0.60;;;;;;;;;;5049623;28;20414;-89
2022/07/10 18:21:25;;;;;;;1.45;0.80;;;;;;;;;;5058699;28;20025;-89
2022/07/10 18:23:59;;;;;;;1.40;0.70;;;;;;;;;;5057978;28;20075;-90
2022/07/10 18:26:25;;;;;;;2.78;0.80;;;;;;;;;;5058910;28;20059;-89
2022/07/10 18:28:51;;;;;;;1.55;0.90;;;;;;;;;;5059301;28;20025;-90
2022/07/10 18:31:17;;;;;;;4.10;1.25;;;;;;;;;;5059042;28;20037;-89
2022/07/10 18:36:27;;;;;;;5.05;0.90;;;;;;;;;;5059040;28;20082;-90
2022/07/10 18:38:54;;;;;;;3.90;1.00;;;;;;;;;;5058663;28;20125;-90
2022/07/10 18:41:20;;;;;;;5.97;0.80;;;;;;;;;;5058591;28;20025;-89
2022/07/10 18:43:46;;;;;;;2.67;0.90;;;;;;;;;;5058834;28;20108;-89
2022/07/10 18:46:12;;;;;;;5.22;1.00;;;;;;;;;;5058795;28;20358;-89
2022/07/10 18:48:38;;;;;;;1.73;0.90;;;;;;;;;;5058789;28;20044;-89
2022/07/10 18:51:04;;;;;;;2.22;1.00;;;;;;;;;;5058151;28;20410;-90
2022/07/10 18:53:30;;;;;;;1.70;1.00;;;;;;;;;;5057587;28;20430;-85
2022/07/10 18:55:56;;;;;;;2.72;0.95;;;;;;;;;;5040181;28;20407;-87
2022/07/10 18:58:22;;;;;;;1.20;0.90;;;;;;;;;;5041287;28;20414;-86
2022/07/10 19:00:48;;;;;;;2.30;1.00;;;;;;;;;;5057983;28;20415;-90
2022/07/10 19:03:14;;;;;;;8.88;1.15;;;;;;;;;;5058325;28;20025;-89
2022/07/10 19:05:40;;;;;;;3.33;1.10;;;;;;;;;;5057363;28;20036;-89
2022/07/10 19:08:06;;;;;;;2.33;1.08;;;;;;;;;;5057992;28;20044;-89
2022/07/10 19:10:33;;;;;;;2.63;0.90;;;;;;;;;;5058362;28;20100;-90
2022/07/10 19:12:59;;;;;;;4.82;0.93;;;;;;;;;;5057038;28;20021;-89
2022/07/10 19:15:26;;;;;;;2.95;1.05;;;;;;;;;;5058225;28;20024;-89
2022/07/10 19:17:52;;;;;;;1.08;0.90;;;;;;;;;;5058170;28;20021;-89
2022/07/10 19:20:18;;;;;;;1.63;1.05;;;;;;;;;;5058060;28;20406;-89
2022/07/10 19:22:49;;;;;;;5.03;1.20;;;;;;;;;;5057856;28;20049;-90
2022/07/10 19:25:15;;;;;;;8.43;1.58;;;;;;;;;;5056905;28;20044;-89
2022/07/10 19:27:42;;;;;;;1.67;1.08;;;;;;;;;;5057121;28;20048;-89
2022/07/10 19:30:12;;;;;;;4.38;1.00;;;;;;;;;;5057788;28;20033;-89
2022/07/10 19:32:38;;;;;;;8.07;1.13;;;;;;;;;;5057734;28;20323;-90
2022/07/10 19:35:04;;;;;;;3.42;0.85;;;;;;;;;;5057561;28;20474;-90
2022/07/10 19:37:30;;;;;;;7.07;1.27;;;;;;;;;;5057762;28;20150;-89
2022/07/10 19:39:57;;;;;;;8.88;1.40;;;;;;;;;;5057648;28;20024;-88
2022/07/10 19:42:23;;;;;;;5.63;0.80;;;;;;;;;;5058113;28;20021;-90
2022/07/10 19:44:49;;;;;;;7.72;1.10;;;;;;;;;;5056624;28;20464;-89
2022/07/10 19:47:15;;;;;;;3.10;1.20;;;;;;;;;;5057798;28;20045;-90
2022/07/10 19:49:42;;;;;;;8.77;1.05;;;;;;;;;;5057564;28;20025;-89
2022/07/10 19:52:08;;;;;;;2.15;0.90;;;;;;;;;;5057695;28;20055;-90
2022/07/10 19:54:34;;;;;;;2.53;1.02;;;;;;;;;;5057732;28;20021;-89
2022/07/10 19:57:00;;;;;;;4.50;0.75;;;;;;;;;;5057767;28;20025;-89
2022/07/10 19:59:26;;;;;;;3.20;0.95;;;;;;;;;;5056884;28;20055;-89
2022/07/10 20:01:53;;;;;;;4.55;1.20;;;;;;;;;;5057238;28;20049;-89
2022/07/10 20:04:19;;;;;;;4.60;0.80;;;;;;;;;;5056436;28;20463;-89
2022/07/10 20:06:45;;;;;;;3.53;1.00;;;;;;;;;;5057487;28;20057;-89
2022/07/10 20:09:11;;;;;;;2.08;0.73;;;;;;;;;;5057364;28;20096;-89
2022/07/10 20:11:37;;;;;;;6.57;1.08;;;;;;;;;;5057474;28;20084;-89
2022/07/10 20:14:04;;;;;;;1.80;0.70;;;;;;;;;;5056432;28;20061;-90
2022/07/10 20:16:32;;;;;;;6.97;0.93;;;;;;;;;;5056759;28;20033;-89
2022/07/10 20:18:58;;;;;;;6.95;0.80;;;;;;;;;;5057296;28;20059;-89
2022/07/10 20:21:24;;;;;;;5.47;0.70;;;;;;;;;;5056058;28;20041;-89
2022/07/10 20:23:51;;;;;;;3.53;0.63;;;;;;;;;;5056454;28;20071;-89
2022/07/10 20:26:17;;;;;;;3.75;0.80;;;;;;;;;;5056323;28;20027;-89
2022/07/10 20:28:43;;;;;;;4.55;0.73;;;;;;;;;;5056266;28;20323;-90
2022/07/10 20:31:10;;;;;;;4.25;0.82;;;;;;;;;;5057008;28;20083;-89
2022/07/10 20:33:36;;;;;;;4.32;0.95;;;;;;;;;;5057286;28;20060;-89
2022/07/10 20:38:46;;;;;;;2.85;0.50;;;;;;;;;;5057281;28;20036;-90
2022/07/10 20:41:13;;;;;;;2.95;0.50;;;;;;;;;;5057382;28;20309;-89
2022/07/10 20:43:39;;;;;;;7.45;0.80;;;;;;;;;;5057336;28;20024;-90
2022/07/10 20:46:05;;;;;;;1.88;0.60;;;;;;;;;;5057157;28;20041;-90
2022/07/10 20:48:31;;;;;;;4.32;0.85;;;;;;;;;;5060285;28;20059;-90
2022/07/10 20:50:57;;;;;;;3.22;0.70;;;;;;;;;;5059863;28;20021;-89
2022/07/10 20:53:23;;;;;;;6.70;0.68;;;;;;;;;;5059766;28;20122;-89
2022/07/10 20:55:49;;;;;;;3.08;0.90;;;;;;;;;;5060944;28;20369;-89
2022/07/10 20:58:15;;;;;;;5.20;0.82;;;;;;;;;;5060744;28;20327;-89
2022/07/10 21:00:41;;;;;;;4.20;0.75;;;;;;;;;;5060045;28;20048;-89
2022/07/10 21:03:07;;;;;;;2.17;0.60;;;;;;;;;;5059632;28;20394;-89
2022/07/10 21:05:35;;;;;;;3.80;0.70;;;;;;;;;;5059649;28;20017;-89
2022/07/10 21:08:05;;;;;;;3.63;0.80;;;;;;;;;;5059622;28;20025;-90
2022/07/10 21:10:41;;;;;;;3.40;0.50;;;;;;;;;;5059224;28;20025;-89
2022/07/10 21:13:11;;;;;;;1.02;0.40;;;;;;;;;;5059472;28;20029;-90
2022/07/10 21:15:38;;;;;;;3.45;0.70;;;;;;;;;;5060584;28;20025;-89
2022/07/10 21:18:04;;;;;;;3.92;0.60;;;;;;;;;;5056805;28;20029;-86
2022/07/10 21:20:30;;;;;;;2.17;0.70;;;;;;;;;;5041678;28;20033;-87
2022/07/10 21:22:56;;;;;;;6.10;1.52;;;;;;;;;;5040289;28;20022;-86
2022/07/10 21:25:22;;;;;;;4.15;1.00;;;;;;;;;;5040053;28;20022;-87
2022/07/10 21:27:50;;;;;;;3.10;1.10;;;;;;;;;;5040192;28;20021;-88
2022/07/10 21:30:16;;;;;;;3.97;1.33;;;;;;;;;;5040070;28;20029;-88
2022/07/10 21:32:42;;;;;;;5.57;1.27;;;;;;;;;;5039246;28;20037;-88
2022/07/10 21:35:08;;;;;;;7.05;1.40;;;;;;;;;;5040396;28;20054;-89
2022/07/10 21:37:34;;;;;;;3.28;1.23;;;;;;;;;;5041366;28;20021;-87
2022/07/10 21:40:00;;;;;;;5.28;1.25;;;;;;;;;;5055615;28;20071;-87
2022/07/10 21:42:26;;;;;;;2.05;1.10;;;;;;;;;;5055057;28;20311;-87
2022/07/10 21:44:53;;;;;;;2.03;0.82;;;;;;;;;;5040180;28;20032;-89
2022/07/10 21:47:19;;;;;;;2.17;0.90;;;;;;;;;;5039465;28;20030;-89
2022/07/10 21:49:45;;;;;;;2.60;0.60;;;;;;;;;;5048032;28;20186;-90
2022/07/10 21:52:11;;;;;;;7.90;0.90;;;;;;;;;;5059509;28;20113;-89
2022/07/10 21:57:41;;;;;;;2.65;0.85;;;;;;;;;;5047797;28;20031;-90
2022/07/10 22:00:08;;;;;;;3.13;1.02;;;;;;;;;;5059237;28;20057;-88
2022/07/10 22:02:34;;;;;;;2.85;0.75;;;;;;;;;;5043904;28;20025;-89
2022/07/10 22:05:00;;;;;;;4.97;0.80;;;;;;;;;;5053917;28;20029;-89
2022/07/10 22:07:28;;;;;;;3.90;0.77;;;;;;;;;;5041184;28;20021;-89
2022/07/10 22:09:54;;;;;;;5.05;0.90;;;;;;;;;;5039616;28;20570;-88
2022/07/10 22:12:20;;;;;;;2.40;0.63;;;;;;;;;;5038564;28;20055;-89
2022/07/10 22:14:47;;;;;;;3.78;0.60;;;;;;;;;;5039683;28;20033;-89
2022/07/10 22:17:13;;;;;;;3.05;0.68;;;;;;;;;;5038936;28;20025;-88
2022/07/10 22:19:39;;;;;;;3.58;0.90;;;;;;;;;;5038310;28;20331;-89
2022/07/10 22:22:05;;;;;;;1.23;0.60;;;;;;;;;;5043933;28;20425;-88
2022/07/10 22:24:31;;;;;;;3.22;0.70;;;;;;;;;;5059494;28;20021;-89
2022/07/10 22:26:57;;;;;;;7.80;0.85;;;;;;;;;;5059246;28;20021;-90
2022/07/10 22:29:23;;;;;;;16.40;1.13;;;;;;;;;;5059223;28;20021;-88
2022/07/10 22:31:49;;;;;;;4.25;0.85;;;;;;;;;;5058807;28;20057;-87
2022/07/10 22:34:15;;;;;;;2.42;0.70;;;;;;;;;;5059110;28;20029;-88
2022/07/10 22:36:41;;;;;;;1.27;0.68;;;;;;;;;;5057603;28;20044;-87
2022/07/10 22:39:07;;;;;;;4.30;1.00;;;;;;;;;;5057744;28;20025;-85
2022/07/10 22:41:33;;;;;;;1.98;0.60;;;;;;;;;;5057806;28;20052;-87
2022/07/10 22:43:59;;;;;;;3.40;0.65;;;;;;;;;;5058736;28;20100;-87
2022/07/10 22:46:26;;;;;;;7.00;0.82;;;;;;;;;;5058580;28;20431;-85
2022/07/10 22:48:52;;;;;;;2.63;0.70;;;;;;;;;;5057499;28;20028;-87
2022/07/10 22:51:19;;;;;;;4.85;0.93;;;;;;;;;;5058950;28;20346;-87
2022/07/10 22:53:45;;;;;;;2.33;0.98;;;;;;;;;;5058522;28;20438;-87
2022/07/10 22:56:11;;;;;;;1.42;0.50;;;;;;;;;;5057780;28;20029;-87
2022/07/10 22:58:37;;;;;;;2.67;0.70;;;;;;;;;;5053557;28;20108;-87
2022/07/10 23:01:04;;;;;;;4.72;0.95;;;;;;;;;;5037260;28;20049;-87
2022/07/10 23:03:31;;;;;;;1.95;0.63;;;;;;;;;;5038633;28;20026;-87
2022/07/10 23:05:57;;;;;;;5.60;1.00;;;;;;;;;;5037398;28;20031;-86
2022/07/10 23:08:23;;;;;;;1.25;0.63;;;;;;;;;;5038536;28;20068;-87
2022/07/10 23:10:49;;;;;;;2.90;0.60;;;;;;;;;;5037922;28;20036;-87
2022/07/10 23:13:15;;;;;;;2.60;0.50;;;;;;;;;;5038588;28;20029;-87
2022/07/10 23:15:42;;;;;;;2.03;0.60;;;;;;;;;;5038581;28;20026;-87
2022/07/10 23:18:08;;;;;;;2.15;0.55;;;;;;;;;;5050292;28;20052;-86
2022/07/10 23:20:34;;;;;;;3.50;0.55;;;;;;;;;;5038327;28;20053;-87
2022/07/10 23:23:03;;;;;;;1.48;0.50;;;;;;;;;;5046900;28;20064;-86
2022/07/10 23:25:29;;;;;;;3.30;0.52;;;;;;;;;;5039312;28;20041;-87
2022/07/10 23:27:55;;;;;;;1.60;0.40;;;;;;;;;;5038359;28;20025;-86
2022/07/10 23:30:22;;;;;;;1.58;0.60;;;;;;;;;;5044729;28;20331;-87
2022/07/10 23:32:48;;;;;;;1.13;0.50;;;;;;;;;;5043257;28;20388;-85
2022/07/10 23:35:14;;;;;;;2.10;0.50;;;;;;;;;;5039485;28;20052;-86
2022/07/10 23:37:40;;;;;;;5.70;0.45;;;;;;;;;;5057742;28;20331;-86
2022/07/10 23:40:06;;;;;;;1.15;0.65;;;;;;;;;;5057941;28;20104;-87
2022/07/10 23:42:32;;;;;;;1.42;0.50;;;;;;;;;;5046256;28;20101;-86
2022/07/10 23:44:59;;;;;;;1.90;0.40;;;;;;;;;;5037993;28;20017;-87
2022/07/10 23:47:25;;;;;;;2.42;0.70;;;;;;;;;;5051133;28;20308;-87
2022/07/10 23:50:06;;;;;;;0.75;0.40;;;;;;;;;;5056138;28;20025;-87
2022/07/10 23:52:33;;;;;;;1.83;0.50;;;;;;;;;;5057516;28;20031;-87
2022/07/10 23:54:59;;;;;;;0.73;0.32;;;;;;;;;;5057888;28;20059;-88
2022/07/10 23:57:25;;;;;;;2.08;0.50;;;;;;;;;;5055688;28;20029;-87
2022/07/10 23:59:51;;;;;;;3.05;0.50;;;;;;;;;;5056452;28;20029;-88
